KLBX

Texas Gulf Coast Regional Airport

Angleton/Lake Jackson, Texas, USA
METAR KLBX 231011Z AUTO 00000KT 4SM BR OVC003 20/18 A3016 RMK AO2 T02000183
Observed Flight Rules
Feb-23 @ 10:11 UTC (22 minutes ago) Instrument Flight Rules
Wind Visibility Clouds Conditions
Calm 4 miles
  • Overcast at 300' AGL
  • Mist
Temperatures Readings
Current 20°C / 68°F
Dewpoint 18°C / 64°F
Humidity 88%
Altimeter 30.16" Hg
Pressure 1021 hPa
Elevation 6
METAR KLBX 231011Z AUTO 00000KT 4SM BR OVC003 20/18 A3016 RMK AO2 T02000183
Observed Flight Rules
Feb-23 @ 10:11 UTC
(22 minutes ago)
LIFR
Wind Visibility
Calm 4 miles
Clouds
  • Overcast at 300' AGL
Conditions
  • Mist
Temperature Dewpoint
20°C / 68°F 18°C / 64°F
Humidity Altimeter Pressure
88% 30.16" Hg 1021 hPa